sensor_id;sensor_type;location;lat;lon;timestamp;pressure;altitude;pressure_sealevel;temperature;humidity
10462;BME280;5278;42.656;23.374;2023-02-11T00:01:47;96210.13;;;-0.51;63.71
10462;BME280;5278;42.656;23.374;2023-02-11T00:04:14;96314.25;;;0.18;63.68
10462;BME280;5278;42.656;23.374;2023-02-11T00:06:41;96332.00;;;0.21;63.63
10462;BME280;5278;42.656;23.374;2023-02-11T00:09:10;96309.09;;;0.19;63.37
10462;BME280;5278;42.656;23.374;2023-02-11T00:11:37;96309.16;;;0.18;63.50
10462;BME280;5278;42.656;23.374;2023-02-11T00:14:05;96308.38;;;0.16;63.30
10462;BME280;5278;42.656;23.374;2023-02-11T00:16:33;96312.38;;;0.21;62.64
10462;BME280;5278;42.656;23.374;2023-02-11T00:19:01;96312.81;;;0.12;62.69
10462;BME280;5278;42.656;23.374;2023-02-11T00:21:29;96310.88;;;-0.02;63.35
10462;BME280;5278;42.656;23.374;2023-02-11T00:23:57;96315.16;;;-0.02;63.31
10462;BME280;5278;42.656;23.374;2023-02-11T00:26:30;96321.22;;;-0.05;63.28
10462;BME280;5278;42.656;23.374;2023-02-11T00:28:57;96312.81;;;-0.07;63.55
10462;BME280;5278;42.656;23.374;2023-02-11T00:31:25;96308.94;;;0.04;62.77
10462;BME280;5278;42.656;23.374;2023-02-11T00:33:53;96326.94;;;0.00;63.04
10462;BME280;5278;42.656;23.374;2023-02-11T00:36:22;96296.91;;;-0.13;62.16
10462;BME280;5278;42.656;23.374;2023-02-11T00:38:51;96301.56;;;-0.03;62.83
10462;BME280;5278;42.656;23.374;2023-02-11T00:41:19;96309.41;;;-0.07;62.18
10462;BME280;5278;42.656;23.374;2023-02-11T00:43:48;96264.94;;;-0.79;63.01
10462;BME280;5278;42.656;23.374;2023-02-11T00:46:15;96313.28;;;-0.17;63.21
10462;BME280;5278;42.656;23.374;2023-02-11T00:48:42;96277.31;;;-0.31;62.50
10462;BME280;5278;42.656;23.374;2023-02-11T00:51:09;96296.91;;;-0.13;62.18
10462;BME280;5278;42.656;23.374;2023-02-11T00:53:37;96304.53;;;-0.12;62.13
10462;BME280;5278;42.656;23.374;2023-02-11T00:56:04;96298.78;;;-0.17;62.24
10462;BME280;5278;42.656;23.374;2023-02-11T00:58:32;96286.13;;;-0.20;61.85
10462;BME280;5278;42.656;23.374;2023-02-11T01:01:00;96256.34;;;-0.38;62.41
10462;BME280;5278;42.656;23.374;2023-02-11T01:03:27;96292.59;;;-0.11;61.93
10462;BME280;5278;42.656;23.374;2023-02-11T01:05:54;96304.78;;;-0.18;61.57
10462;BME280;5278;42.656;23.374;2023-02-11T01:08:21;96288.22;;;-0.28;61.28
10462;BME280;5278;42.656;23.374;2023-02-11T01:10:53;96294.72;;;-0.21;61.29
10462;BME280;5278;42.656;23.374;2023-02-11T01:13:21;96293.94;;;-0.23;61.38
10462;BME280;5278;42.656;23.374;2023-02-11T01:15:48;96291.41;;;-0.23;61.35
10462;BME280;5278;42.656;23.374;2023-02-11T01:18:16;96318.59;;;-0.22;61.38
10462;BME280;5278;42.656;23.374;2023-02-11T01:20:43;96295.56;;;-0.20;61.58
10462;BME280;5278;42.656;23.374;2023-02-11T01:23:10;96297.19;;;-0.19;61.17
10462;BME280;5278;42.656;23.374;2023-02-11T01:25:37;96291.81;;;-0.32;61.50
10462;BME280;5278;42.656;23.374;2023-02-11T01:28:04;96273.72;;;-0.46;61.50
10462;BME280;5278;42.656;23.374;2023-02-11T01:30:31;96290.09;;;-0.31;61.86
10462;BME280;5278;42.656;23.374;2023-02-11T01:32:58;96286.69;;;-0.32;62.13
10462;BME280;5278;42.656;23.374;2023-02-11T01:35:26;96281.13;;;-0.40;62.04
10462;BME280;5278;42.656;23.374;2023-02-11T01:37:53;96288.78;;;-0.40;62.10
10462;BME280;5278;42.656;23.374;2023-02-11T01:40:20;96278.56;;;-0.40;61.71
10462;BME280;5278;42.656;23.374;2023-02-11T01:42:47;96288.78;;;-0.40;62.29
10462;BME280;5278;42.656;23.374;2023-02-11T01:48:21;96288.25;;;-0.48;61.99
10462;BME280;5278;42.656;23.374;2023-02-11T01:50:51;96273.84;;;-0.49;62.27
10462;BME280;5278;42.656;23.374;2023-02-11T01:53:20;96285.06;;;-0.53;62.37
10462;BME280;5278;42.656;23.374;2023-02-11T01:56:05;96285.28;;;-0.58;62.20
10462;BME280;5278;42.656;23.374;2023-02-11T01:58:52;96280.50;;;-0.65;62.57
10462;BME280;5278;42.656;23.374;2023-02-11T02:01:24;96280.44;;;-0.64;62.84
10462;BME280;5278;42.656;23.374;2023-02-11T02:03:53;96290.81;;;-0.68;62.79
10462;BME280;5278;42.656;23.374;2023-02-11T02:06:30;96279.03;;;-0.71;63.11
10462;BME280;5278;42.656;23.374;2023-02-11T02:09:01;96266.94;;;-0.66;62.96
10462;BME280;5278;42.656;23.374;2023-02-11T02:11:31;96267.13;;;-0.70;62.22
10462;BME280;5278;42.656;23.374;2023-02-11T02:13:58;96281.41;;;-0.66;62.78
10462;BME280;5278;42.656;23.374;2023-02-11T02:16:29;96284.84;;;-0.67;62.79
10462;BME280;5278;42.656;23.374;2023-02-11T02:19:15;96277.34;;;-0.70;62.94
10462;BME280;5278;42.656;23.374;2023-02-11T02:22:14;96279.34;;;-0.78;63.59
10462;BME280;5278;42.656;23.374;2023-02-11T02:25:14;96250.56;;;-1.01;63.78
10462;BME280;5278;42.656;23.374;2023-02-11T02:27:49;96278.88;;;-0.87;63.60
10462;BME280;5278;42.656;23.374;2023-02-11T02:30:50;96281.28;;;-0.83;63.59
10462;BME280;5278;42.656;23.374;2023-02-11T02:33:29;96287.75;;;-0.95;64.41
10462;BME280;5278;42.656;23.374;2023-02-11T02:36:07;96274.00;;;-0.93;64.50
10462;BME280;5278;42.656;23.374;2023-02-11T02:38:38;96253.13;;;-1.21;64.19
10462;BME280;5278;42.656;23.374;2023-02-11T02:41:12;96269.88;;;-0.95;64.19
10462;BME280;5278;42.656;23.374;2023-02-11T02:43:41;96284.41;;;-0.97;64.09
10462;BME280;5278;42.656;23.374;2023-02-11T02:46:11;96271.06;;;-1.04;64.14
10462;BME280;5278;42.656;23.374;2023-02-11T02:48:40;96141.16;;;-1.86;64.43
10462;BME280;5278;42.656;23.374;2023-02-11T02:51:26;96281.22;;;-1.02;64.94
10462;BME280;5278;42.656;23.374;2023-02-11T02:54:07;96278.63;;;-1.01;64.20
10462;BME280;5278;42.656;23.374;2023-02-11T02:56:44;96277.59;;;-0.97;63.95
10462;BME280;5278;42.656;23.374;2023-02-11T02:59:25;96283.81;;;-1.04;64.13
10462;BME280;5278;42.656;23.374;2023-02-11T03:02:04;96281.16;;;-1.01;63.66
10462;BME280;5278;42.656;23.374;2023-02-11T03:04:42;96192.50;;;-1.75;64.03
10462;BME280;5278;42.656;23.374;2023-02-11T03:07:16;96293.13;;;-1.03;64.23
10462;BME280;5278;42.656;23.374;2023-02-11T03:09:49;96287.09;;;-1.00;63.85
10462;BME280;5278;42.656;23.374;2023-02-11T03:12:18;96274.47;;;-1.03;63.52
10462;BME280;5278;42.656;23.374;2023-02-11T03:14:48;96297.09;;;-0.96;63.98
10462;BME280;5278;42.656;23.374;2023-02-11T03:17:18;96285.25;;;-0.97;63.76
10462;BME280;5278;42.656;23.374;2023-02-11T03:19:49;96284.47;;;-0.99;63.56
10462;BME280;5278;42.656;23.374;2023-02-11T03:22:21;96284.47;;;-0.99;63.99
10462;BME280;5278;42.656;23.374;2023-02-11T03:24:48;96288.72;;;-0.99;63.93
10462;BME280;5278;42.656;23.374;2023-02-11T03:27:20;96283.72;;;-1.01;63.88
10462;BME280;5278;42.656;23.374;2023-02-11T03:29:51;96188.75;;;-1.66;64.25
10462;BME280;5278;42.656;23.374;2023-02-11T03:32:24;96275.44;;;-1.06;63.75
10462;BME280;5278;42.656;23.374;2023-02-11T03:34:56;96280.59;;;-1.07;64.01
10462;BME280;5278;42.656;23.374;2023-02-11T03:37:28;96277.44;;;-1.14;64.36
10462;BME280;5278;42.656;23.374;2023-02-11T03:40:00;96263.41;;;-1.24;64.65
10462;BME280;5278;42.656;23.374;2023-02-11T03:42:31;96265.22;;;-1.26;64.77
10462;BME280;5278;42.656;23.374;2023-02-11T03:45:05;96279.50;;;-1.22;64.47
10462;BME280;5278;42.656;23.374;2023-02-11T03:47:35;96277.72;;;-1.20;64.74
10462;BME280;5278;42.656;23.374;2023-02-11T03:50:07;96199.66;;;-1.85;64.46
10462;BME280;5278;42.656;23.374;2023-02-11T03:52:36;96275.31;;;-1.24;64.85
10462;BME280;5278;42.656;23.374;2023-02-11T03:55:08;96107.50;;;-2.35;64.99
10462;BME280;5278;42.656;23.374;2023-02-11T03:57:36;96276.25;;;-1.25;64.99
10462;BME280;5278;42.656;23.374;2023-02-11T04:00:04;96275.50;;;-1.29;65.15
10462;BME280;5278;42.656;23.374;2023-02-11T04:02:34;96168.06;;;-2.01;65.70
10462;BME280;5278;42.656;23.374;2023-02-11T04:05:01;96274.00;;;-1.33;65.69
10462;BME280;5278;42.656;23.374;2023-02-11T04:07:30;96274.88;;;-1.34;65.28
10462;BME280;5278;42.656;23.374;2023-02-11T04:09:57;96285.97;;;-1.35;65.62
10462;BME280;5278;42.656;23.374;2023-02-11T04:12:24;96284.38;;;-1.38;65.97
10462;BME280;5278;42.656;23.374;2023-02-11T04:14:51;96275.06;;;-1.39;65.74
10462;BME280;5278;42.656;23.374;2023-02-11T04:17:17;96273.16;;;-1.34;65.56
10462;BME280;5278;42.656;23.374;2023-02-11T04:19:44;96285.06;;;-1.34;65.53
10462;BME280;5278;42.656;23.374;2023-02-11T04:22:11;96281.97;;;-1.41;65.80
10462;BME280;5278;42.656;23.374;2023-02-11T04:24:40;96295.72;;;-1.45;65.49
10462;BME280;5278;42.656;23.374;2023-02-11T04:27:08;96283.84;;;-1.46;66.04
10462;BME280;5278;42.656;23.374;2023-02-11T04:29:35;96271.94;;;-1.45;66.12
10462;BME280;5278;42.656;23.374;2023-02-11T04:32:02;96266.84;;;-1.45;65.96
10462;BME280;5278;42.656;23.374;2023-02-11T04:34:29;96274.38;;;-1.42;66.74
10462;BME280;5278;42.656;23.374;2023-02-11T04:36:56;96280.44;;;-1.45;66.35
10462;BME280;5278;42.656;23.374;2023-02-11T04:39:22;96282.00;;;-1.42;65.92
10462;BME280;5278;42.656;23.374;2023-02-11T04:41:51;96182.72;;;-2.07;64.98
10462;BME280;5278;42.656;23.374;2023-02-11T04:44:18;96249.44;;;-1.78;64.92
10462;BME280;5278;42.656;23.374;2023-02-11T04:46:44;96272.25;;;-1.75;64.46
10462;BME280;5278;42.656;23.374;2023-02-11T04:49:12;96267.16;;;-1.96;65.29
10462;BME280;5278;42.656;23.374;2023-02-11T04:51:39;96268.09;;;-1.99;65.64
10462;BME280;5278;42.656;23.374;2023-02-11T04:54:06;96179.88;;;-2.65;65.47
10462;BME280;5278;42.656;23.374;2023-02-11T04:56:33;96272.22;;;-2.18;65.66
10462;BME280;5278;42.656;23.374;2023-02-11T04:59:01;96277.53;;;-2.24;65.82
10462;BME280;5278;42.656;23.374;2023-02-11T05:01:28;96277.94;;;-2.35;66.06
10462;BME280;5278;42.656;23.374;2023-02-11T05:03:55;96208.25;;;-3.00;66.10
10462;BME280;5278;42.656;23.374;2023-02-11T05:06:22;96273.28;;;-2.47;66.06
10462;BME280;5278;42.656;23.374;2023-02-11T05:08:49;96268.34;;;-2.51;66.04
10462;BME280;5278;42.656;23.374;2023-02-11T05:11:18;96269.41;;;-2.57;66.99
10462;BME280;5278;42.656;23.374;2023-02-11T05:13:46;96270.25;;;-2.56;66.67
10462;BME280;5278;42.656;23.374;2023-02-11T05:16:15;96264.38;;;-2.58;66.56
10462;BME280;5278;42.656;23.374;2023-02-11T05:18:43;96267.16;;;-2.65;66.80
10462;BME280;5278;42.656;23.374;2023-02-11T05:21:12;96254.44;;;-2.65;66.85
10462;BME280;5278;42.656;23.374;2023-02-11T05:23:40;96256.81;;;-2.60;66.92
10462;BME280;5278;42.656;23.374;2023-02-11T05:26:08;96207.88;;;-2.90;67.03
10462;BME280;5278;42.656;23.374;2023-02-11T05:28:35;96267.66;;;-2.55;66.96
10462;BME280;5278;42.656;23.374;2023-02-11T05:31:02;96267.34;;;-2.47;67.59
10462;BME280;5278;42.656;23.374;2023-02-11T05:33:31;96257.00;;;-2.43;67.91
10462;BME280;5278;42.656;23.374;2023-02-11T05:35:58;96252.66;;;-2.39;68.61
10462;BME280;5278;42.656;23.374;2023-02-11T05:38:25;96261.06;;;-2.37;67.85
10462;BME280;5278;42.656;23.374;2023-02-11T05:40:53;96259.38;;;-2.38;67.50
10462;BME280;5278;42.656;23.374;2023-02-11T05:43:20;96263.44;;;-2.33;67.86
10462;BME280;5278;42.656;23.374;2023-02-11T05:45:47;96258.47;;;-2.14;67.71
10462;BME280;5278;42.656;23.374;2023-02-11T05:48:14;96258.16;;;-1.83;69.26
10462;BME280;5278;42.656;23.374;2023-02-11T05:50:42;96253.84;;;-1.39;70.30
10462;BME280;5278;42.656;23.374;2023-02-11T05:53:10;96253.03;;;-0.99;66.15
10462;BME280;5278;42.656;23.374;2023-02-11T05:55:36;96263.53;;;-0.66;64.55
10462;BME280;5278;42.656;23.374;2023-02-11T05:58:06;96106.75;;;-1.15;60.91
10462;BME280;5278;42.656;23.374;2023-02-11T06:00:34;96254.00;;;0.31;58.18
10462;BME280;5278;42.656;23.374;2023-02-11T06:03:00;96254.91;;;0.83;55.61
10462;BME280;5278;42.656;23.374;2023-02-11T06:05:28;96254.16;;;1.48;53.85
10462;BME280;5278;42.656;23.374;2023-02-11T06:07:57;96248.47;;;2.07;53.66
10462;BME280;5278;42.656;23.374;2023-02-11T06:10:24;96251.28;;;2.64;51.84
10462;BME280;5278;42.656;23.374;2023-02-11T06:12:51;96254.53;;;2.97;48.96
10462;BME280;5278;42.656;23.374;2023-02-11T06:15:18;96241.38;;;3.60;48.40
10462;BME280;5278;42.656;23.374;2023-02-11T06:17:45;96240.03;;;4.10;47.12
10462;BME280;5278;42.656;23.374;2023-02-11T06:20:12;96149.59;;;4.30;43.90
10462;BME280;5278;42.656;23.374;2023-02-11T06:22:39;96243.31;;;5.57;40.58
10462;BME280;5278;42.656;23.374;2023-02-11T06:25:07;96241.69;;;6.18;37.87
10462;BME280;5278;42.656;23.374;2023-02-11T06:27:35;96134.94;;;6.08;36.78
10462;BME280;5278;42.656;23.374;2023-02-11T06:30:02;96218.31;;;7.14;35.99
10462;BME280;5278;42.656;23.374;2023-02-11T06:32:29;96228.75;;;7.81;34.77
10462;BME280;5278;42.656;23.374;2023-02-11T06:34:57;96222.94;;;8.33;33.97
10462;BME280;5278;42.656;23.374;2023-02-11T06:37:23;96232.56;;;8.53;33.97
10462;BME280;5278;42.656;23.374;2023-02-11T06:39:50;96215.72;;;8.91;32.80
10462;BME280;5278;42.656;23.374;2023-02-11T06:42:18;96223.75;;;8.77;33.63
10462;BME280;5278;42.656;23.374;2023-02-11T06:44:45;96217.66;;;8.46;33.45
10462;BME280;5278;42.656;23.374;2023-02-11T06:47:12;96129.63;;;7.81;34.31
10462;BME280;5278;42.656;23.374;2023-02-11T06:49:39;96228.31;;;8.52;34.12
10462;BME280;5278;42.656;23.374;2023-02-11T06:52:06;96230.22;;;8.50;34.02
10462;BME280;5278;42.656;23.374;2023-02-11T06:54:33;96237.06;;;8.51;33.74
10462;BME280;5278;42.656;23.374;2023-02-11T06:56:59;96224.59;;;8.45;33.41
10462;BME280;5278;42.656;23.374;2023-02-11T06:59:28;96236.53;;;8.57;34.01
10462;BME280;5278;42.656;23.374;2023-02-11T07:01:55;96229.94;;;8.64;33.38
10462;BME280;5278;42.656;23.374;2023-02-11T07:04:21;96234.28;;;8.75;33.47
10462;BME280;5278;42.656;23.374;2023-02-11T07:06:48;96236.63;;;8.67;33.24
10462;BME280;5278;42.656;23.374;2023-02-11T07:09:15;96240.88;;;9.00;36.04
10462;BME280;5278;42.656;23.374;2023-02-11T07:11:42;96239.00;;;9.43;34.21
10462;BME280;5278;42.656;23.374;2023-02-11T07:14:09;96223.59;;;9.72;32.96
10462;BME280;5278;42.656;23.374;2023-02-11T07:16:39;96228.88;;;10.22;32.36
10462;BME280;5278;42.656;23.374;2023-02-11T07:19:06;96212.28;;;10.53;31.65
10462;BME280;5278;42.656;23.374;2023-02-11T07:21:33;96210.69;;;11.00;31.16
10462;BME280;5278;42.656;23.374;2023-02-11T07:24:00;96208.31;;;11.07;30.06
10462;BME280;5278;42.656;23.374;2023-02-11T07:26:27;96144.03;;;10.80;29.39
10462;BME280;5278;42.656;23.374;2023-02-11T07:28:54;96202.09;;;11.75;29.14
10462;BME280;5278;42.656;23.374;2023-02-11T07:31:23;96202.31;;;12.19;28.44
10462;BME280;5278;42.656;23.374;2023-02-11T07:33:52;96191.03;;;12.45;28.33
10462;BME280;5278;42.656;23.374;2023-02-11T07:36:20;96188.91;;;13.12;27.40
10462;BME280;5278;42.656;23.374;2023-02-11T07:38:47;96184.38;;;13.65;26.81
10462;BME280;5278;42.656;23.374;2023-02-11T07:41:16;96188.53;;;14.10;25.96
10462;BME280;5278;42.656;23.374;2023-02-11T07:43:43;96183.13;;;14.37;25.49
10462;BME280;5278;42.656;23.374;2023-02-11T07:46:13;96178.63;;;14.63;25.23
10462;BME280;5278;42.656;23.374;2023-02-11T07:48:40;96156.03;;;14.62;24.91
10462;BME280;5278;42.656;23.374;2023-02-11T07:51:11;96176.00;;;14.80;24.99
10462;BME280;5278;42.656;23.374;2023-02-11T07:53:38;96180.69;;;14.44;24.99
10462;BME280;5278;42.656;23.374;2023-02-11T07:56:07;96173.19;;;14.57;25.14
10462;BME280;5278;42.656;23.374;2023-02-11T07:58:34;96167.34;;;14.79;24.74
10462;BME280;5278;42.656;23.374;2023-02-11T08:01:02;96167.03;;;14.90;24.71
10462;BME280;5278;42.656;23.374;2023-02-11T08:03:29;96165.88;;;15.25;24.18
10462;BME280;5278;42.656;23.374;2023-02-11T08:05:56;96153.91;;;15.55;24.65
10462;BME280;5278;42.656;23.374;2023-02-11T08:08:26;96107.34;;;14.94;24.30
10462;BME280;5278;42.656;23.374;2023-02-11T08:10:52;96168.66;;;14.99;24.37
10462;BME280;5278;42.656;23.374;2023-02-11T08:13:19;96162.78;;;15.54;24.60
10462;BME280;5278;42.656;23.374;2023-02-11T08:15:46;96178.22;;;15.96;23.64
10462;BME280;5278;42.656;23.374;2023-02-11T08:18:13;96167.47;;;16.22;23.09
10462;BME280;5278;42.656;23.374;2023-02-11T08:20:40;96162.88;;;16.63;22.84
10462;BME280;5278;42.656;23.374;2023-02-11T08:23:07;96138.53;;;16.38;23.09
10462;BME280;5278;42.656;23.374;2023-02-11T08:25:35;96156.50;;;16.49;22.74
10462;BME280;5278;42.656;23.374;2023-02-11T08:28:02;96158.72;;;16.38;22.88
10462;BME280;5278;42.656;23.374;2023-02-11T08:30:28;96161.25;;;16.23;22.99
10462;BME280;5278;42.656;23.374;2023-02-11T08:32:55;96159.59;;;15.83;23.01
10462;BME280;5278;42.656;23.374;2023-02-11T08:35:22;96158.94;;;16.20;22.73
10462;BME280;5278;42.656;23.374;2023-02-11T08:37:50;96155.75;;;16.94;22.26
10462;BME280;5278;42.656;23.374;2023-02-11T08:40:17;96161.38;;;17.29;22.13
10462;BME280;5278;42.656;23.374;2023-02-11T08:42:45;96152.25;;;18.06;21.45
10462;BME280;5278;42.656;23.374;2023-02-11T08:45:12;96149.06;;;18.25;20.73
10462;BME280;5278;42.656;23.374;2023-02-11T08:47:39;96148.13;;;18.47;20.74
10462;BME280;5278;42.656;23.374;2023-02-11T08:50:06;96154.53;;;18.60;20.68
10462;BME280;5278;42.656;23.374;2023-02-11T08:52:34;96149.44;;;18.94;20.27
10462;BME280;5278;42.656;23.374;2023-02-11T08:55:01;96152.41;;;19.33;20.03
10462;BME280;5278;42.656;23.374;2023-02-11T08:57:28;96185.50;;;19.36;20.11
10462;BME280;5278;42.656;23.374;2023-02-11T08:59:57;96148.47;;;19.23;20.05
10462;BME280;5278;42.656;23.374;2023-02-11T09:02:24;96142.72;;;20.31;19.48
10462;BME280;5278;42.656;23.374;2023-02-11T09:04:51;96141.19;;;20.56;18.86
10462;BME280;5278;42.656;23.374;2023-02-11T09:07:18;96091.47;;;20.18;18.81
10462;BME280;5278;42.656;23.374;2023-02-11T09:09:45;96141.03;;;20.71;19.02
10462;BME280;5278;42.656;23.374;2023-02-11T09:12:12;96141.78;;;20.10;19.22
10462;BME280;5278;42.656;23.374;2023-02-11T09:14:38;96143.06;;;20.21;19.32
10462;BME280;5278;42.656;23.374;2023-02-11T09:17:07;96057.06;;;19.99;19.00
10462;BME280;5278;42.656;23.374;2023-02-11T09:19:34;96127.00;;;20.70;18.87
10462;BME280;5278;42.656;23.374;2023-02-11T09:22:01;96139.00;;;20.73;18.51
10462;BME280;5278;42.656;23.374;2023-02-11T09:24:28;96132.13;;;20.91;18.60
10462;BME280;5278;42.656;23.374;2023-02-11T09:26:55;96123.03;;;21.46;18.04
10462;BME280;5278;42.656;23.374;2023-02-11T09:29:21;96122.00;;;21.47;18.10
10462;BME280;5278;42.656;23.374;2023-02-11T09:31:48;96116.28;;;21.04;18.12
10462;BME280;5278;42.656;23.374;2023-02-11T09:34:17;96114.47;;;21.58;18.06
10462;BME280;5278;42.656;23.374;2023-02-11T09:36:44;96068.00;;;21.95;17.37
10462;BME280;5278;42.656;23.374;2023-02-11T09:39:12;96095.03;;;22.03;17.54
10462;BME280;5278;42.656;23.374;2023-02-11T09:42:18;96107.69;;;22.01;17.73
10462;BME280;5278;42.656;23.374;2023-02-11T09:44:50;96113.13;;;22.19;17.47
10462;BME280;5278;42.656;23.374;2023-02-11T09:47:23;96077.69;;;22.14;17.06
10462;BME280;5278;42.656;23.374;2023-02-11T09:49:57;96087.47;;;22.13;17.29
10462;BME280;5278;42.656;23.374;2023-02-11T09:52:31;96097.03;;;22.21;16.82
10462;BME280;5278;42.656;23.374;2023-02-11T09:55:03;96024.94;;;21.48;16.78
10462;BME280;5278;42.656;23.374;2023-02-11T09:57:32;96082.22;;;21.87;16.97
10462;BME280;5278;42.656;23.374;2023-02-11T10:00:00;96077.59;;;21.69;17.14
10462;BME280;5278;42.656;23.374;2023-02-11T10:02:33;95985.50;;;21.46;17.00
10462;BME280;5278;42.656;23.374;2023-02-11T10:05:12;96064.94;;;21.84;16.85
10462;BME280;5278;42.656;23.374;2023-02-11T10:07:47;96063.59;;;21.49;17.16
10462;BME280;5278;42.656;23.374;2023-02-11T10:10:24;96058.94;;;21.44;17.43
10462;BME280;5278;42.656;23.374;2023-02-11T10:13:14;95952.13;;;21.32;16.94
10462;BME280;5278;42.656;23.374;2023-02-11T10:15:52;96045.94;;;22.07;16.96
10462;BME280;5278;42.656;23.374;2023-02-11T10:18:39;96006.03;;;22.02;16.63
10462;BME280;5278;42.656;23.374;2023-02-11T10:21:18;95951.41;;;21.70;16.68
10462;BME280;5278;42.656;23.374;2023-02-11T10:23:53;96030.44;;;20.68;18.00
10462;BME280;5278;42.656;23.374;2023-02-11T10:26:22;96034.47;;;20.31;18.28
10462;BME280;5278;42.656;23.374;2023-02-11T10:28:51;96009.72;;;20.45;17.74
10462;BME280;5278;42.656;23.374;2023-02-11T10:31:22;96012.25;;;20.05;17.82
10462;BME280;5278;42.656;23.374;2023-02-11T10:33:54;95999.50;;;19.68;18.20
10462;BME280;5278;42.656;23.374;2023-02-11T10:36:27;96016.38;;;19.73;18.10
10462;BME280;5278;42.656;23.374;2023-02-11T10:38:56;95989.88;;;19.95;17.58
10462;BME280;5278;42.656;23.374;2023-02-11T10:41:27;95911.50;;;19.82;17.70
10462;BME280;5278;42.656;23.374;2023-02-11T10:43:58;95971.28;;;21.08;17.18
10462;BME280;5278;42.656;23.374;2023-02-11T10:46:31;95968.84;;;21.13;16.76
10462;BME280;5278;42.656;23.374;2023-02-11T10:48:59;95937.91;;;21.33;16.57
10462;BME280;5278;42.656;23.374;2023-02-11T10:51:30;95937.44;;;21.50;17.00
10462;BME280;5278;42.656;23.374;2023-02-11T10:54:17;95953.88;;;21.65;16.60
10462;BME280;5278;42.656;23.374;2023-02-11T10:56:48;95947.03;;;21.88;16.35
10462;BME280;5278;42.656;23.374;2023-02-11T10:59:20;95942.59;;;22.20;16.83
10462;BME280;5278;42.656;23.374;2023-02-11T11:01:52;95929.69;;;22.30;16.32
10462;BME280;5278;42.656;23.374;2023-02-11T11:04:32;95930.84;;;22.66;15.84
10462;BME280;5278;42.656;23.374;2023-02-11T11:07:12;95929.09;;;22.53;16.21
10462;BME280;5278;42.656;23.374;2023-02-11T11:09:46;95921.38;;;22.52;16.01
10462;BME280;5278;42.656;23.374;2023-02-11T11:12:44;95852.47;;;21.71;15.58
10462;BME280;5278;42.656;23.374;2023-02-11T11:15:16;95924.56;;;22.04;15.96
10462;BME280;5278;42.656;23.374;2023-02-11T11:17:44;95922.78;;;21.47;16.26
10462;BME280;5278;42.656;23.374;2023-02-11T11:20:13;95927.31;;;21.33;16.63
10462;BME280;5278;42.656;23.374;2023-02-11T11:22:42;95878.63;;;20.83;16.61
10462;BME280;5278;42.656;23.374;2023-02-11T11:25:20;95931.88;;;20.74;17.16
10462;BME280;5278;42.656;23.374;2023-02-11T11:27:48;95921.28;;;21.20;16.81
10462;BME280;5278;42.656;23.374;2023-02-11T11:30:16;95930.47;;;20.78;17.14
10462;BME280;5278;42.656;23.374;2023-02-11T11:32:43;95926.81;;;20.52;17.35
10462;BME280;5278;42.656;23.374;2023-02-11T11:35:22;95928.97;;;20.03;17.70
10462;BME280;5278;42.656;23.374;2023-02-11T11:37:54;95910.94;;;20.19;17.56
10462;BME280;5278;42.656;23.374;2023-02-11T11:40:24;95757.56;;;19.03;17.74
10462;BME280;5278;42.656;23.374;2023-02-11T11:43:08;95907.50;;;20.06;17.64
10462;BME280;5278;42.656;23.374;2023-02-11T11:45:52;95832.56;;;19.94;17.44
10462;BME280;5278;42.656;23.374;2023-02-11T11:48:24;95908.34;;;20.39;17.67
10462;BME280;5278;42.656;23.374;2023-02-11T11:50:55;95900.63;;;20.31;17.60
10462;BME280;5278;42.656;23.374;2023-02-11T11:53:28;95897.13;;;20.17;17.21
10462;BME280;5278;42.656;23.374;2023-02-11T11:56:02;95881.16;;;20.32;17.41
10462;BME280;5278;42.656;23.374;2023-02-11T11:58:30;95890.03;;;20.57;17.35
10462;BME280;5278;42.656;23.374;2023-02-11T12:01:06;95873.00;;;20.34;17.48
10462;BME280;5278;42.656;23.374;2023-02-11T12:06:41;95879.63;;;19.84;17.66
10462;BME280;5278;42.656;23.374;2023-02-11T12:09:18;95850.00;;;18.73;18.44
10462;BME280;5278;42.656;23.374;2023-02-11T12:12:01;95877.19;;;18.25;18.99
10462;BME280;5278;42.656;23.374;2023-02-11T12:14:36;95786.34;;;17.58;19.31
10462;BME280;5278;42.656;23.374;2023-02-11T12:17:13;95863.94;;;17.69;19.62
10462;BME280;5278;42.656;23.374;2023-02-11T12:22:53;95842.28;;;16.95;20.64
10462;BME280;5278;42.656;23.374;2023-02-11T12:25:26;95856.03;;;17.12;20.53
10462;BME280;5278;42.656;23.374;2023-02-11T12:28:19;95864.75;;;16.98;20.63
10462;BME280;5278;42.656;23.374;2023-02-11T12:30:59;95845.63;;;16.89;20.89
10462;BME280;5278;42.656;23.374;2023-02-11T12:33:39;95841.81;;;17.06;20.75
10462;BME280;5278;42.656;23.374;2023-02-11T12:36:15;95837.38;;;17.07;20.39
10462;BME280;5278;42.656;23.374;2023-02-11T12:38:57;95823.06;;;16.95;20.20
10462;BME280;5278;42.656;23.374;2023-02-11T12:41:49;95829.06;;;16.89;20.22
10462;BME280;5278;42.656;23.374;2023-02-11T12:44:49;95832.72;;;16.73;20.55
10462;BME280;5278;42.656;23.374;2023-02-11T12:47:26;95743.88;;;15.36;20.64
10462;BME280;5278;42.656;23.374;2023-02-11T12:50:11;95833.41;;;15.09;20.99
10462;BME280;5278;42.656;23.374;2023-02-11T12:52:49;95832.91;;;14.03;22.17
10462;BME280;5278;42.656;23.374;2023-02-11T12:55:22;95831.47;;;13.68;22.71
10462;BME280;5278;42.656;23.374;2023-02-11T12:57:53;95828.50;;;13.31;22.74
10462;BME280;5278;42.656;23.374;2023-02-11T13:00:22;95835.63;;;12.71;23.28
10462;BME280;5278;42.656;23.374;2023-02-11T13:02:55;95716.41;;;11.71;24.25
10462;BME280;5278;42.656;23.374;2023-02-11T13:05:28;95832.78;;;12.14;24.46
10462;BME280;5278;42.656;23.374;2023-02-11T13:08:02;95830.97;;;11.71;24.98
10462;BME280;5278;42.656;23.374;2023-02-11T13:10:32;95822.97;;;11.64;25.58
10462;BME280;5278;42.656;23.374;2023-02-11T13:13:04;95825.38;;;11.66;25.37
10462;BME280;5278;42.656;23.374;2023-02-11T13:15:47;95684.97;;;10.24;26.22
10462;BME280;5278;42.656;23.374;2023-02-11T13:18:34;95830.75;;;10.39;27.45
10462;BME280;5278;42.656;23.374;2023-02-11T13:21:18;95828.00;;;9.94;28.34
10462;BME280;5278;42.656;23.374;2023-02-11T13:23:54;95815.94;;;9.56;28.50
10462;BME280;5278;42.656;23.374;2023-02-11T13:26:28;95826.59;;;9.15;29.07
10462;BME280;5278;42.656;23.374;2023-02-11T13:29:09;95826.56;;;8.95;29.71
10462;BME280;5278;42.656;23.374;2023-02-11T13:31:41;95805.53;;;8.79;29.71